Terminal Aerodrome Forecast
Issued by NWS

Home | Current Version | Previous Version | Text Only | Print | Product List | Glossary On
Versions: 1 2 3 4 5 6 7 8 9 10 11 12 13 14 15 16 17 18
000
FTUS43 KTOP 052320
TAFFOE
TAF
KFOE 052320Z 0600/0624 16012KT P6SM SCT250
     FM061500 20014G20KT P6SM SCT050
     FM062100 19010KT P6SM BKN040
      TEMPO 0621/0624 5SM -TSRA BKN030CB=

USA.gov is the U.S. government's official web portal to all federal, state and local government web resources and services.